sensor_id;sensor_type;location;lat;lon;timestamp;pressure;altitude;pressure_sealevel;temperature;humidity
62710;BME280;48770;51.624;5.886;2023-06-04T00:02:03;101990.66;;;24.51;25.32
62710;BME280;48770;51.624;5.886;2023-06-04T00:04:28;101990.66;;;24.51;25.16
62710;BME280;48770;51.624;5.886;2023-06-04T00:06:55;101983.09;;;24.52;25.02
62710;BME280;48770;51.624;5.886;2023-06-04T00:09:21;101984.25;;;24.51;25.11
62710;BME280;48770;51.624;5.886;2023-06-04T00:11:46;101989.03;;;24.50;25.31
62710;BME280;48770;51.624;5.886;2023-06-04T00:14:13;101985.44;;;24.50;25.29
62710;BME280;48770;51.624;5.886;2023-06-04T00:16:38;101984.63;;;24.49;24.93
62710;BME280;48770;51.624;5.886;2023-06-04T00:19:05;101988.56;;;24.48;25.29
62710;BME280;48770;51.624;5.886;2023-06-04T00:21:31;101979.38;;;24.48;25.12
62710;BME280;48770;51.624;5.886;2023-06-04T00:23:56;101972.16;;;24.47;25.59
62710;BME280;48770;51.624;5.886;2023-06-04T00:26:22;101976.94;;;24.46;25.28
62710;BME280;48770;51.624;5.886;2023-06-04T00:28:47;101973.28;;;24.46;25.16
62710;BME280;48770;51.624;5.886;2023-06-04T00:31:12;101977.25;;;24.45;25.40
62710;BME280;48770;51.624;5.886;2023-06-04T00:33:40;101981.69;;;24.46;25.31
62710;BME280;48770;51.624;5.886;2023-06-04T00:36:06;101982.03;;;24.44;25.59
62710;BME280;48770;51.624;5.886;2023-06-04T00:38:31;101974.81;;;24.43;25.59
62710;BME280;48770;51.624;5.886;2023-06-04T00:40:57;101981.22;;;24.44;25.44
62710;BME280;48770;51.624;5.886;2023-06-04T00:43:23;101986.34;;;24.42;25.66
62710;BME280;48770;51.624;5.886;2023-06-04T00:45:51;101986.00;;;24.43;25.71
62710;BME280;48770;51.624;5.886;2023-06-04T00:48:17;101977.13;;;24.41;25.25
62710;BME280;48770;51.624;5.886;2023-06-04T00:50:42;101976.31;;;24.41;25.45
62710;BME280;48770;51.624;5.886;2023-06-04T00:53:08;101983.09;;;24.40;25.51
62710;BME280;48770;51.624;5.886;2023-06-04T00:55:34;101976.31;;;24.41;25.81
62710;BME280;48770;51.624;5.886;2023-06-04T00:57:59;101975.03;;;24.38;25.65
62710;BME280;48770;51.624;5.886;2023-06-04T01:00:26;101971.44;;;24.38;25.91
62710;BME280;48770;51.624;5.886;2023-06-04T01:02:52;101982.63;;;24.38;25.91
62710;BME280;48770;51.624;5.886;2023-06-04T01:05:37;101971.44;;;24.38;25.70
62710;BME280;48770;51.624;5.886;2023-06-04T01:08:04;101974.94;;;24.35;25.78
62710;BME280;48770;51.624;5.886;2023-06-04T01:10:30;101973.78;;;24.36;25.76
62710;BME280;48770;51.624;5.886;2023-06-04T01:12:56;101974.94;;;24.35;26.34
62710;BME280;48770;51.624;5.886;2023-06-04T01:15:21;101971.31;;;24.34;25.90
62710;BME280;48770;51.624;5.886;2023-06-04T01:17:49;101977.72;;;24.35;26.07
62710;BME280;48770;51.624;5.886;2023-06-04T01:20:36;101978.44;;;24.32;26.20
62710;BME280;48770;51.624;5.886;2023-06-04T01:25:49;101982.38;;;24.31;26.35
62710;BME280;48770;51.624;5.886;2023-06-04T01:28:16;101983.56;;;24.29;26.34
62710;BME280;48770;51.624;5.886;2023-06-04T01:30:45;101977.97;;;24.29;26.31
62710;BME280;48770;51.624;5.886;2023-06-04T01:33:15;101984.72;;;24.28;26.46
62710;BME280;48770;51.624;5.886;2023-06-04T01:35:40;101981.94;;;24.28;26.21
62710;BME280;48770;51.624;5.886;2023-06-04T01:38:06;101977.47;;;24.27;26.33
62710;BME280;48770;51.624;5.886;2023-06-04T01:40:31;101975.84;;;24.26;26.14
62710;BME280;48770;51.624;5.886;2023-06-04T01:42:58;101975.84;;;24.26;26.50
62710;BME280;48770;51.624;5.886;2023-06-04T01:45:24;101978.63;;;24.26;26.60
62710;BME280;48770;51.624;5.886;2023-06-04T01:47:50;101970.25;;;24.26;26.48
62710;BME280;48770;51.624;5.886;2023-06-04T01:50:16;101974.22;;;24.25;26.66
62710;BME280;48770;51.624;5.886;2023-06-04T01:52:42;101974.56;;;24.24;26.24
62710;BME280;48770;51.624;5.886;2023-06-04T01:55:09;101960.59;;;24.24;26.41
62710;BME280;48770;51.624;5.886;2023-06-04T01:57:37;101970.13;;;24.23;26.45
62710;BME280;48770;51.624;5.886;2023-06-04T02:00:04;101976.53;;;24.23;26.58
62710;BME280;48770;51.624;5.886;2023-06-04T02:02:32;101973.28;;;24.21;26.56
62710;BME280;48770;51.624;5.886;2023-06-04T02:04:58;101973.28;;;24.21;26.35
62710;BME280;48770;51.624;5.886;2023-06-04T02:07:23;101972.78;;;24.19;26.34
62710;BME280;48770;51.624;5.886;2023-06-04T02:09:49;101976.75;;;24.18;26.38
62710;BME280;48770;51.624;5.886;2023-06-04T02:12:14;101973.94;;;24.18;26.26
62710;BME280;48770;51.624;5.886;2023-06-04T02:14:39;101977.91;;;24.17;26.66
62710;BME280;48770;51.624;5.886;2023-06-04T02:17:07;101976.28;;;24.16;26.56
62710;BME280;48770;51.624;5.886;2023-06-04T02:19:42;101978.25;;;24.16;26.64
62710;BME280;48770;51.624;5.886;2023-06-04T02:22:15;101980.59;;;24.14;26.54
62710;BME280;48770;51.624;5.886;2023-06-04T02:24:40;101979.78;;;24.13;26.39
62710;BME280;48770;51.624;5.886;2023-06-04T02:27:08;101975.81;;;24.14;26.60
62710;BME280;48770;51.624;5.886;2023-06-04T02:29:34;101979.78;;;24.13;26.61
62710;BME280;48770;51.624;5.886;2023-06-04T02:32:00;101971.75;;;24.12;26.69
62710;BME280;48770;51.624;5.886;2023-06-04T02:34:26;101973.72;;;24.11;26.65
62710;BME280;48770;51.624;5.886;2023-06-04T02:36:51;101965.69;;;24.10;26.74
62710;BME280;48770;51.624;5.886;2023-06-04T02:39:18;101968.47;;;24.10;26.71
62710;BME280;48770;51.624;5.886;2023-06-04T02:41:43;101974.41;;;24.08;26.59
62710;BME280;48770;51.624;5.886;2023-06-04T02:44:09;101963.59;;;24.07;26.75
62710;BME280;48770;51.624;5.886;2023-06-04T02:46:34;101971.16;;;24.06;26.50
62710;BME280;48770;51.624;5.886;2023-06-04T02:48:59;101973.94;;;24.06;26.38
62710;BME280;48770;51.624;5.886;2023-06-04T02:51:25;101984.66;;;24.04;26.60
62710;BME280;48770;51.624;5.886;2023-06-04T02:53:50;101983.84;;;24.04;26.84
62710;BME280;48770;51.624;5.886;2023-06-04T02:56:15;101980.25;;;24.03;26.71
62710;BME280;48770;51.624;5.886;2023-06-04T02:58:54;101972.19;;;24.02;26.65
62710;BME280;48770;51.624;5.886;2023-06-04T03:01:21;101980.59;;;24.02;26.97
62710;BME280;48770;51.624;5.886;2023-06-04T03:03:47;101982.91;;;23.99;26.71
62710;BME280;48770;51.624;5.886;2023-06-04T03:06:14;101986.88;;;23.98;26.68
62710;BME280;48770;51.624;5.886;2023-06-04T03:08:40;101982.09;;;23.99;26.88
62710;BME280;48770;51.624;5.886;2023-06-04T03:11:06;101984.06;;;23.98;26.54
62710;BME280;48770;51.624;5.886;2023-06-04T03:13:31;101994.44;;;23.98;26.73
62710;BME280;48770;51.624;5.886;2023-06-04T03:15:57;101984.44;;;23.97;27.03
62710;BME280;48770;51.624;5.886;2023-06-04T03:18:25;101984.78;;;23.95;26.85
62710;BME280;48770;51.624;5.886;2023-06-04T03:20:51;101984.78;;;23.95;26.99
62710;BME280;48770;51.624;5.886;2023-06-04T03:23:18;101983.97;;;23.95;27.04
62710;BME280;48770;51.624;5.886;2023-06-04T03:25:43;101990.69;;;23.94;26.89
62710;BME280;48770;51.624;5.886;2023-06-04T03:28:09;101985.09;;;23.94;26.86
62710;BME280;48770;51.624;5.886;2023-06-04T03:30:34;101985.44;;;23.92;27.16
62710;BME280;48770;51.624;5.886;2023-06-04T03:32:59;101981.81;;;23.92;27.05
62710;BME280;48770;51.624;5.886;2023-06-04T03:35:25;101986.59;;;23.91;26.89
62710;BME280;48770;51.624;5.886;2023-06-04T03:37:50;101981.38;;;23.90;27.02
62710;BME280;48770;51.624;5.886;2023-06-04T03:40:16;101982.53;;;23.89;26.83
62710;BME280;48770;51.624;5.886;2023-06-04T03:42:41;101978.91;;;23.88;26.93
62710;BME280;48770;51.624;5.886;2023-06-04T03:45:07;101986.47;;;23.88;27.06
62710;BME280;48770;51.624;5.886;2023-06-04T03:47:33;101982.06;;;23.87;27.13
62710;BME280;48770;51.624;5.886;2023-06-04T03:49:58;101976.81;;;23.85;26.76
62710;BME280;48770;51.624;5.886;2023-06-04T03:52:23;101974.03;;;23.85;26.72
62710;BME280;48770;51.624;5.886;2023-06-04T03:54:48;101981.59;;;23.85;27.12
62710;BME280;48770;51.624;5.886;2023-06-04T03:57:14;101987.19;;;23.85;27.25
62710;BME280;48770;51.624;5.886;2023-06-04T03:59:40;101979.97;;;23.84;26.84
62710;BME280;48770;51.624;5.886;2023-06-04T04:02:05;101983.91;;;23.83;27.34
62710;BME280;48770;51.624;5.886;2023-06-04T04:04:31;101983.09;;;23.82;27.17
62710;BME280;48770;51.624;5.886;2023-06-04T04:06:58;101983.09;;;23.82;27.16
62710;BME280;48770;51.624;5.886;2023-06-04T04:09:25;101989.50;;;23.83;26.91
62710;BME280;48770;51.624;5.886;2023-06-04T04:11:50;101980.66;;;23.81;27.33
62710;BME280;48770;51.624;5.886;2023-06-04T04:14:16;101985.41;;;23.80;26.92
62710;BME280;48770;51.624;5.886;2023-06-04T04:16:41;101987.41;;;23.80;26.88
62710;BME280;48770;51.624;5.886;2023-06-04T04:19:07;101989.38;;;23.79;27.23
62710;BME280;48770;51.624;5.886;2023-06-04T04:21:34;101989.38;;;23.79;27.11
62710;BME280;48770;51.624;5.886;2023-06-04T04:24:01;101986.94;;;23.78;27.48
62710;BME280;48770;51.624;5.886;2023-06-04T04:26:27;101995.31;;;23.78;26.99
62710;BME280;48770;51.624;5.886;2023-06-04T04:28:53;101986.13;;;23.77;27.38
62710;BME280;48770;51.624;5.886;2023-06-04T04:31:29;101986.94;;;23.78;27.47
62710;BME280;48770;51.624;5.886;2023-06-04T04:33:56;101983.19;;;23.74;27.31
62710;BME280;48770;51.624;5.886;2023-06-04T04:36:21;101980.06;;;23.75;27.23
62710;BME280;48770;51.624;5.886;2023-06-04T04:38:46;101983.66;;;23.76;27.30
62710;BME280;48770;51.624;5.886;2023-06-04T04:41:19;101988.78;;;23.74;27.50
62710;BME280;48770;51.624;5.886;2023-06-04T04:43:46;101998.78;;;23.75;27.60
62710;BME280;48770;51.624;5.886;2023-06-04T04:46:11;101992.41;;;23.74;27.54
62710;BME280;48770;51.624;5.886;2023-06-04T04:48:36;101989.59;;;23.74;27.29
62710;BME280;48770;51.624;5.886;2023-06-04T04:51:03;101996.81;;;23.75;27.51
62710;BME280;48770;51.624;5.886;2023-06-04T04:53:28;101997.16;;;23.74;27.49
62710;BME280;48770;51.624;5.886;2023-06-04T04:55:54;101997.16;;;23.74;27.54
62710;BME280;48770;51.624;5.886;2023-06-04T04:58:19;102002.75;;;23.74;27.25
62710;BME280;48770;51.624;5.886;2023-06-04T05:00:45;101996.34;;;23.73;27.35
62710;BME280;48770;51.624;5.886;2023-06-04T05:03:15;101997.97;;;23.74;27.24
62710;BME280;48770;51.624;5.886;2023-06-04T05:05:40;102004.38;;;23.75;27.58
62710;BME280;48770;51.624;5.886;2023-06-04T05:08:05;101997.16;;;23.74;27.74
62710;BME280;48770;51.624;5.886;2023-06-04T05:10:31;102001.94;;;23.73;27.69
62710;BME280;48770;51.624;5.886;2023-06-04T05:12:58;102002.75;;;23.74;27.81
62710;BME280;48770;51.624;5.886;2023-06-04T05:15:24;102003.56;;;23.74;27.72
62710;BME280;48770;51.624;5.886;2023-06-04T05:17:51;102005.53;;;23.74;27.86
62710;BME280;48770;51.624;5.886;2023-06-04T05:20:18;102004.38;;;23.75;27.72
62710;BME280;48770;51.624;5.886;2023-06-04T05:22:46;102003.56;;;23.74;27.66
62710;BME280;48770;51.624;5.886;2023-06-04T05:25:11;102004.38;;;23.75;27.96
62710;BME280;48770;51.624;5.886;2023-06-04T05:27:37;102002.75;;;23.74;27.74
62710;BME280;48770;51.624;5.886;2023-06-04T05:30:03;102001.59;;;23.75;27.42
62710;BME280;48770;51.624;5.886;2023-06-04T05:32:29;101998.78;;;23.75;27.62
62710;BME280;48770;51.624;5.886;2023-06-04T05:34:57;101998.78;;;23.75;27.76
62710;BME280;48770;51.624;5.886;2023-06-04T05:37:23;102000.44;;;23.76;28.05
62710;BME280;48770;51.624;5.886;2023-06-04T05:39:49;101995.66;;;23.76;28.03
62710;BME280;48770;51.624;5.886;2023-06-04T05:42:15;102004.03;;;23.76;28.08
62710;BME280;48770;51.624;5.886;2023-06-04T05:44:40;101997.63;;;23.76;28.08
62710;BME280;48770;51.624;5.886;2023-06-04T05:47:06;102001.25;;;23.76;27.87
62710;BME280;48770;51.624;5.886;2023-06-04T05:49:33;102002.06;;;23.77;27.87
62710;BME280;48770;51.624;5.886;2023-06-04T05:51:59;101996.47;;;23.77;28.06
62710;BME280;48770;51.624;5.886;2023-06-04T05:54:24;102000.91;;;23.78;28.06
62710;BME280;48770;51.624;5.886;2023-06-04T05:56:50;102004.84;;;23.77;28.03
62710;BME280;48770;51.624;5.886;2023-06-04T05:59:15;102005.66;;;23.77;28.27
62710;BME280;48770;51.624;5.886;2023-06-04T06:01:40;102009.28;;;23.78;27.96
62710;BME280;48770;51.624;5.886;2023-06-04T06:04:06;101998.09;;;23.78;28.20
62710;BME280;48770;51.624;5.886;2023-06-04T06:06:32;102004.50;;;23.78;28.27
62710;BME280;48770;51.624;5.886;2023-06-04T06:08:57;102003.69;;;23.78;28.02
62710;BME280;48770;51.624;5.886;2023-06-04T06:11:23;101999.72;;;23.79;28.14
62710;BME280;48770;51.624;5.886;2023-06-04T06:13:48;102008.13;;;23.79;27.99
62710;BME280;48770;51.624;5.886;2023-06-04T06:16:14;102010.91;;;23.79;27.97
62710;BME280;48770;51.624;5.886;2023-06-04T06:18:39;102001.38;;;23.80;27.96
62710;BME280;48770;51.624;5.886;2023-06-04T06:21:05;102014.16;;;23.81;28.04
62710;BME280;48770;51.624;5.886;2023-06-04T06:23:30;102012.53;;;23.80;28.38
62710;BME280;48770;51.624;5.886;2023-06-04T06:25:56;102004.97;;;23.80;27.97
62710;BME280;48770;51.624;5.886;2023-06-04T06:28:22;102014.16;;;23.81;27.94
62710;BME280;48770;51.624;5.886;2023-06-04T06:30:47;102012.19;;;23.81;28.21
62710;BME280;48770;51.624;5.886;2023-06-04T06:33:13;102009.41;;;23.81;28.25
62710;BME280;48770;51.624;5.886;2023-06-04T06:35:38;102019.41;;;23.82;27.84
62710;BME280;48770;51.624;5.886;2023-06-04T06:38:05;102025.81;;;23.83;28.31
62710;BME280;48770;51.624;5.886;2023-06-04T06:40:30;102028.59;;;23.83;28.50
62710;BME280;48770;51.624;5.886;2023-06-04T06:42:55;102022.19;;;23.82;27.97
62710;BME280;48770;51.624;5.886;2023-06-04T06:45:21;102027.44;;;23.84;28.32
62710;BME280;48770;51.624;5.886;2023-06-04T06:47:46;102024.66;;;23.84;28.18
62710;BME280;48770;51.624;5.886;2023-06-04T06:50:11;102031.88;;;23.85;28.02
62710;BME280;48770;51.624;5.886;2023-06-04T06:52:38;102028.25;;;23.84;28.18
62710;BME280;48770;51.624;5.886;2023-06-04T06:55:04;102026.28;;;23.85;28.43
62710;BME280;48770;51.624;5.886;2023-06-04T06:57:29;102028.59;;;23.83;28.10
62710;BME280;48770;51.624;5.886;2023-06-04T06:59:55;102031.88;;;23.85;28.21
62710;BME280;48770;51.624;5.886;2023-06-04T07:02:21;102038.28;;;23.85;28.40
62710;BME280;48770;51.624;5.886;2023-06-04T07:04:46;102034.66;;;23.85;28.29
62710;BME280;48770;51.624;5.886;2023-06-04T07:07:11;102038.28;;;23.85;28.62
62710;BME280;48770;51.624;5.886;2023-06-04T07:09:37;102034.31;;;23.86;28.62
62710;BME280;48770;51.624;5.886;2023-06-04T07:12:03;102037.91;;;23.87;28.75
62710;BME280;48770;51.624;5.886;2023-06-04T07:14:28;102043.16;;;23.88;28.40
62710;BME280;48770;51.624;5.886;2023-06-04T07:16:53;102035.94;;;23.87;28.77
62710;BME280;48770;51.624;5.886;2023-06-04T07:19:19;102046.78;;;23.89;28.61
62710;BME280;48770;51.624;5.886;2023-06-04T07:21:44;102047.59;;;23.89;28.42
62710;BME280;48770;51.624;5.886;2023-06-04T07:24:10;102047.59;;;23.89;28.14
62710;BME280;48770;51.624;5.886;2023-06-04T07:26:35;102050.03;;;23.91;28.39
62710;BME280;48770;51.624;5.886;2023-06-04T07:29:02;102049.69;;;23.92;28.12
62710;BME280;48770;51.624;5.886;2023-06-04T07:31:27;102044.09;;;23.92;28.05
62710;BME280;48770;51.624;5.886;2023-06-04T07:33:52;102048.88;;;23.92;27.85
62710;BME280;48770;51.624;5.886;2023-06-04T07:36:18;102047.25;;;23.91;27.45
62710;BME280;48770;51.624;5.886;2023-06-04T07:38:44;102044.44;;;23.91;28.38
62710;BME280;48770;51.624;5.886;2023-06-04T07:41:09;102044.91;;;23.93;28.55
62710;BME280;48770;51.624;5.886;2023-06-04T07:43:35;102049.34;;;23.94;28.86
62710;BME280;48770;51.624;5.886;2023-06-04T07:46:04;102040.16;;;23.93;28.31
62710;BME280;48770;51.624;5.886;2023-06-04T07:48:29;102044.91;;;23.93;28.38
62710;BME280;48770;51.624;5.886;2023-06-04T07:50:58;102044.91;;;23.93;28.44
62710;BME280;48770;51.624;5.886;2023-06-04T07:53:24;102050.50;;;23.93;28.15
62710;BME280;48770;51.624;5.886;2023-06-04T07:55:50;102039.00;;;23.94;27.92
62710;BME280;48770;51.624;5.886;2023-06-04T07:58:15;102043.75;;;23.94;27.60
62710;BME280;48770;51.624;5.886;2023-06-04T08:00:41;102049.34;;;23.94;27.74
62710;BME280;48770;51.624;5.886;2023-06-04T08:03:06;102040.97;;;23.94;27.50
62710;BME280;48770;51.624;5.886;2023-06-04T08:05:31;102041.47;;;23.96;27.71
62710;BME280;48770;51.624;5.886;2023-06-04T08:07:56;102050.66;;;23.96;26.81
62710;BME280;48770;51.624;5.886;2023-06-04T08:10:22;102047.88;;;23.96;27.19
62710;BME280;48770;51.624;5.886;2023-06-04T08:12:47;102038.66;;;23.96;27.28
62710;BME280;48770;51.624;5.886;2023-06-04T08:15:13;102038.66;;;23.96;26.72
62710;BME280;48770;51.624;5.886;2023-06-04T08:17:38;102037.50;;;23.97;26.98
62710;BME280;48770;51.624;5.886;2023-06-04T08:20:04;102043.09;;;23.97;27.06
62710;BME280;48770;51.624;5.886;2023-06-04T08:22:31;102031.56;;;23.98;26.43
62710;BME280;48770;51.624;5.886;2023-06-04T08:24:57;102048.34;;;23.98;26.72
62710;BME280;48770;51.624;5.886;2023-06-04T08:27:22;102046.34;;;23.99;26.56
62710;BME280;48770;51.624;5.886;2023-06-04T08:29:48;102050.31;;;23.98;26.12
62710;BME280;48770;51.624;5.886;2023-06-04T08:32:13;102043.91;;;23.97;26.51
62710;BME280;48770;51.624;5.886;2023-06-04T08:34:39;102050.31;;;23.98;26.60
62710;BME280;48770;51.624;5.886;2023-06-04T08:37:05;102048.00;;;24.00;26.60
62710;BME280;48770;51.624;5.886;2023-06-04T08:39:30;102043.56;;;23.99;26.69
62710;BME280;48770;51.624;5.886;2023-06-04T08:42:00;102047.16;;;23.99;26.34
62710;BME280;48770;51.624;5.886;2023-06-04T08:44:27;102049.16;;;23.99;26.50
62710;BME280;48770;51.624;5.886;2023-06-04T08:46:53;102057.53;;;23.99;25.69
62710;BME280;48770;51.624;5.886;2023-06-04T08:49:21;102051.59;;;24.01;25.76
62710;BME280;48770;51.624;5.886;2023-06-04T08:51:47;102050.78;;;24.00;25.50
62710;BME280;48770;51.624;5.886;2023-06-04T08:54:13;102057.19;;;24.01;25.69
62710;BME280;48770;51.624;5.886;2023-06-04T08:56:39;102055.56;;;23.99;25.47
62710;BME280;48770;51.624;5.886;2023-06-04T08:59:06;102050.78;;;24.00;25.82
62710;BME280;48770;51.624;5.886;2023-06-04T09:01:33;102064.41;;;24.02;25.25
62710;BME280;48770;51.624;5.886;2023-06-04T09:04:03;102068.84;;;24.03;25.29
62710;BME280;48770;51.624;5.886;2023-06-04T09:06:29;102063.25;;;24.03;26.50
62710;BME280;48770;51.624;5.886;2023-06-04T09:08:56;102068.47;;;24.04;26.26
62710;BME280;48770;51.624;5.886;2023-06-04T09:11:26;102065.00;;;24.07;26.42
62710;BME280;48770;51.624;5.886;2023-06-04T09:13:53;102063.84;;;24.08;26.15
62710;BME280;48770;51.624;5.886;2023-06-04T09:16:22;102049.50;;;24.10;27.14
62710;BME280;48770;51.624;5.886;2023-06-04T09:18:47;102063.13;;;24.11;27.30
62710;BME280;48770;51.624;5.886;2023-06-04T09:21:13;102064.44;;;24.14;26.89
62710;BME280;48770;51.624;5.886;2023-06-04T09:23:46;102050.44;;;24.14;27.11
62710;BME280;48770;51.624;5.886;2023-06-04T09:26:12;102058.22;;;23.96;27.03
62710;BME280;48770;51.624;5.886;2023-06-04T09:28:41;102048.56;;;24.06;27.29
62710;BME280;48770;51.624;5.886;2023-06-04T09:31:25;102055.44;;;24.08;27.69
62710;BME280;48770;51.624;5.886;2023-06-04T09:33:51;102055.56;;;24.12;27.82
62710;BME280;48770;51.624;5.886;2023-06-04T09:36:17;102061.63;;;24.14;27.66
62710;BME280;48770;51.624;5.886;2023-06-04T09:38:43;102065.25;;;24.14;27.74
62710;BME280;48770;51.624;5.886;2023-06-04T09:41:16;102066.53;;;24.17;27.42
62710;BME280;48770;51.624;5.886;2023-06-04T09:43:42;102061.75;;;24.17;27.64
62710;BME280;48770;51.624;5.886;2023-06-04T09:46:13;102059.41;;;24.19;27.83
62710;BME280;48770;51.624;5.886;2023-06-04T09:48:40;102062.22;;;24.19;28.02
62710;BME280;48770;51.624;5.886;2023-06-04T09:51:15;102061.09;;;24.20;27.69
62710;BME280;48770;51.624;5.886;2023-06-04T09:53:53;102055.50;;;24.20;27.80
62710;BME280;48770;51.624;5.886;2023-06-04T09:56:18;102052.34;;;24.22;27.75
62710;BME280;48770;51.624;5.886;2023-06-04T09:58:45;102047.56;;;24.22;27.62
62710;BME280;48770;51.624;5.886;2023-06-04T10:01:11;102053.97;;;24.23;27.70
62710;BME280;48770;51.624;5.886;2023-06-04T10:03:36;102057.25;;;24.25;28.03
62710;BME280;48770;51.624;5.886;2023-06-04T10:06:05;102051.31;;;24.26;27.95
62710;BME280;48770;51.624;5.886;2023-06-04T10:08:31;102064.97;;;24.28;27.95
62710;BME280;48770;51.624;5.886;2023-06-04T10:11:02;102056.56;;;24.28;28.17
62710;BME280;48770;51.624;5.886;2023-06-04T10:13:35;102051.81;;;24.28;27.95
62710;BME280;48770;51.624;5.886;2023-06-04T10:16:05;102049.81;;;24.29;28.28
62710;BME280;48770;51.624;5.886;2023-06-04T10:18:33;102053.44;;;24.29;28.14
62710;BME280;48770;51.624;5.886;2023-06-04T10:20:58;102048.66;;;24.30;28.00
62710;BME280;48770;51.624;5.886;2023-06-04T10:23:24;102050.28;;;24.31;28.24
62710;BME280;48770;51.624;5.886;2023-06-04T10:25:51;102047.16;;;24.33;28.24
62710;BME280;48770;51.624;5.886;2023-06-04T10:28:20;102054.72;;;24.32;28.12
62710;BME280;48770;51.624;5.886;2023-06-04T10:30:47;102047.97;;;24.33;28.27
62710;BME280;48770;51.624;5.886;2023-06-04T10:33:15;102049.94;;;24.33;28.15
62710;BME280;48770;51.624;5.886;2023-06-04T10:35:42;102057.16;;;24.34;28.17
62710;BME280;48770;51.624;5.886;2023-06-04T10:38:09;102061.59;;;24.35;28.14
62710;BME280;48770;51.624;5.886;2023-06-04T10:40:36;102050.41;;;24.35;28.39
62710;BME280;48770;51.624;5.886;2023-06-04T10:43:06;102054.84;;;24.36;28.47
62710;BME280;48770;51.624;5.886;2023-06-04T10:45:32;102054.84;;;24.36;28.59
62710;BME280;48770;51.624;5.886;2023-06-04T10:48:02;102050.88;;;24.37;28.29
62710;BME280;48770;51.624;5.886;2023-06-04T10:50:27;102054.50;;;24.37;28.67
62710;BME280;48770;51.624;5.886;2023-06-04T10:52:54;102048.91;;;24.37;28.50
62710;BME280;48770;51.624;5.886;2023-06-04T10:55:20;102045.75;;;24.39;28.70
62710;BME280;48770;51.624;5.886;2023-06-04T11:00:18;102044.59;;;24.40;28.91
62710;BME280;48770;51.624;5.886;2023-06-04T11:02:56;102046.56;;;24.39;28.20
62710;BME280;48770;51.624;5.886;2023-06-04T11:05:22;102046.22;;;24.41;28.60
62710;BME280;48770;51.624;5.886;2023-06-04T11:07:49;102045.03;;;24.42;28.67
62710;BME280;48770;51.624;5.886;2023-06-04T11:10:16;102048.66;;;24.42;28.58
62710;BME280;48770;51.624;5.886;2023-06-04T11:12:49;102055.06;;;24.43;28.31
62710;BME280;48770;51.624;5.886;2023-06-04T11:15:18;102041.09;;;24.43;28.79
62710;BME280;48770;51.624;5.886;2023-06-04T11:17:55;102044.69;;;24.43;28.54
62710;BME280;48770;51.624;5.886;2023-06-04T11:20:23;102042.72;;;24.44;28.49
62710;BME280;48770;51.624;5.886;2023-06-04T11:22:54;102033.97;;;24.45;28.61
62710;BME280;48770;51.624;5.886;2023-06-04T11:25:21;102035.66;;;24.46;28.78
62710;BME280;48770;51.624;5.886;2023-06-04T11:27:48;102034.47;;;24.47;28.57
62710;BME280;48770;51.624;5.886;2023-06-04T11:30:13;102026.91;;;24.48;28.38
62710;BME280;48770;51.624;5.886;2023-06-04T11:32:39;102026.91;;;24.48;28.58
62710;BME280;48770;51.624;5.886;2023-06-04T11:35:05;102029.34;;;24.49;28.88
62710;BME280;48770;51.624;5.886;2023-06-04T11:37:36;102030.16;;;24.50;28.50
62710;BME280;48770;51.624;5.886;2023-06-04T11:40:02;102032.63;;;24.51;28.85
62710;BME280;48770;51.624;5.886;2023-06-04T11:42:30;102022.25;;;24.52;28.82
62710;BME280;48770;51.624;5.886;2023-06-04T11:44:56;102021.44;;;24.51;28.64
62710;BME280;48770;51.624;5.886;2023-06-04T11:47:23;102019.44;;;24.52;28.93
62710;BME280;48770;51.624;5.886;2023-06-04T11:49:54;102019.09;;;24.53;28.68
62710;BME280;48770;51.624;5.886;2023-06-04T11:52:20;102012.69;;;24.53;28.52
62710;BME280;48770;51.624;5.886;2023-06-04T11:54:46;102019.09;;;24.53;28.72
62710;BME280;48770;51.624;5.886;2023-06-04T11:57:11;102017.13;;;24.54;28.67
62710;BME280;48770;51.624;5.886;2023-06-04T11:59:37;102005.94;;;24.54;28.96
62710;BME280;48770;51.624;5.886;2023-06-04T12:02:03;102011.97;;;24.56;28.81
62710;BME280;48770;51.624;5.886;2023-06-04T12:04:29;102015.59;;;24.56;28.93
62710;BME280;48770;51.624;5.886;2023-06-04T12:06:57;102009.66;;;24.58;28.70
62710;BME280;48770;51.624;5.886;2023-06-04T12:09:25;102010.47;;;24.58;28.92
62710;BME280;48770;51.624;5.886;2023-06-04T12:11:58;102002.88;;;24.59;28.90
62710;BME280;48770;51.624;5.886;2023-06-04T12:14:23;102012.09;;;24.59;28.92
62710;BME280;48770;51.624;5.886;2023-06-04T12:16:56;102008.94;;;24.61;28.67
62710;BME280;48770;51.624;5.886;2023-06-04T12:19:22;102003.72;;;24.59;28.74
62710;BME280;48770;51.624;5.886;2023-06-04T12:21:59;101998.13;;;24.59;28.67
62710;BME280;48770;51.624;5.886;2023-06-04T12:24:25;102004.97;;;24.62;28.88
62710;BME280;48770;51.624;5.886;2023-06-04T12:27:04;102001.38;;;24.62;29.02
62710;BME280;48770;51.624;5.886;2023-06-04T12:29:29;102003.81;;;24.63;29.19
62710;BME280;48770;51.624;5.886;2023-06-04T12:32:06;101999.03;;;24.64;29.19
62710;BME280;48770;51.624;5.886;2023-06-04T12:34:37;102002.28;;;24.66;28.86
62710;BME280;48770;51.624;5.886;2023-06-04T12:37:03;101992.28;;;24.65;29.04
62710;BME280;48770;51.624;5.886;2023-06-04T12:39:34;101995.53;;;24.67;29.12
62710;BME280;48770;51.624;5.886;2023-06-04T12:42:01;101993.56;;;24.67;29.06
62710;BME280;48770;51.624;5.886;2023-06-04T12:44:26;101996.00;;;24.69;29.30
62710;BME280;48770;51.624;5.886;2023-06-04T12:46:52;101998.44;;;24.70;29.38
62710;BME280;48770;51.624;5.886;2023-06-04T12:49:18;101997.28;;;24.71;29.32
62710;BME280;48770;51.624;5.886;2023-06-04T12:51:43;101992.50;;;24.72;28.93
62710;BME280;48770;51.624;5.886;2023-06-04T12:54:09;101987.41;;;24.74;28.76